Time;durP1;ratioP1;P1;durP2;ratioP2;P2;SDS_P1;SDS_P2;PMS_P1;PMS_P2;Temp;Humidity;BMP_temperature;BMP_pressure;BME280_temperature;BME280_humidity;BME280_pressure;Samples;Min_cycle;Max_cycle;Signal;HPM_P1;HPM_P2
2023/03/19 20:55:17;;;;;;;;;;;;;;;9.16;50.06;94984.66;5084889;22;2059415;-58
2023/03/19 20:57:21;;;;;;;;;;;;;;;9.18;50.16;94989.72;5139843;23;20386;-60
2023/03/19 20:59:24;;;;;;;;;;;;;;;9.16;50.24;94986.44;5166126;23;19977;-61
2023/03/19 21:01:26;;;;;;;;;;;;;;;9.09;50.20;94980.94;5166157;23;19986;-59
2023/03/19 21:03:28;;;;;;;;;;;;;;;9.14;50.72;94989.19;5166618;23;20254;-57
2023/03/19 21:05:34;;;;;;;;;;;;;;;9.21;50.38;94984.22;5167070;23;19920;-60
2023/03/19 21:07:36;;;;;;;;;;;;;;;9.31;50.19;94987.59;5140536;23;19920;-60
2023/03/19 21:09:38;;;;;;;;;;;;;;;9.35;50.17;94978.50;5167584;23;19966;-61
2023/03/19 21:11:40;;;;;;;;;;;;;;;9.38;49.60;94983.47;5168042;23;19961;-62
2023/03/19 21:13:43;;;;;;;;;;;;;;;9.43;49.46;94978.59;5141938;23;19919;-58
2023/03/19 21:15:45;;;;;;;;;;;;;;;9.48;49.33;94983.41;5167863;23;19962;-60
2023/03/19 21:17:46;;;;;;;;;;;;;;;9.52;49.91;94987.38;5141101;23;19920;-59
2023/03/19 21:19:48;;;;;;;;;;;;;;;9.55;49.95;94987.09;5166965;23;19950;-61
2023/03/19 21:21:50;;;;;;;;;;;;;;;9.57;49.69;94984.31;5166704;23;20213;-55
2023/03/19 21:23:55;;;;;;;;;;;;;;;9.58;49.79;94978.94;5167183;23;20318;-61
2023/03/19 21:25:58;;;;;;;;;;;;;;;9.57;49.83;94985.16;5167934;23;19927;-61
2023/03/19 21:28:01;;;;;;;;;;;;;;;9.58;49.96;94980.75;5141087;23;19920;-58
2023/03/19 21:30:03;;;;;;;;;;;;;;;9.56;49.27;94982.69;5167131;23;19919;-60
2023/03/19 21:32:09;;;;;;;;;;;;;;;9.55;49.66;94987.09;5141208;23;19970;-56
2023/03/19 21:34:12;;;;;;;;;;;;;;;9.52;50.17;94982.13;5141324;23;20291;-57
2023/03/19 21:36:13;;;;;;;;;;;;;;;9.51;49.96;94983.13;5139967;23;19958;-60
2023/03/19 21:38:15;;;;;;;;;;;;;;;9.50;50.84;94980.66;5166482;23;20350;-58
2023/03/19 21:40:21;;;;;;;;;;;;;;;9.47;50.81;94973.09;5167373;23;20286;-60
2023/03/19 21:42:22;;;;;;;;;;;;;;;9.45;50.93;94982.88;5167987;23;19919;-61
2023/03/19 21:44:28;;;;;;;;;;;;;;;9.41;51.04;94980.53;5140993;23;19978;-60
2023/03/19 21:46:30;;;;;;;;;;;;;;;9.38;51.33;94975.63;5141856;23;19924;-57
2023/03/19 21:48:32;;;;;;;;;;;;;;;9.34;51.31;94981.28;5140736;23;20021;-58
2023/03/19 21:50:34;;;;;;;;;;;;;;;9.30;51.15;94985.97;5166164;23;19923;-59
2023/03/19 21:52:36;;;;;;;;;;;;;;;9.25;51.02;94982.13;5167214;23;19966;-58
2023/03/19 21:54:57;;;;;;;;;;;;;;;9.23;51.32;94988.34;5166349;23;19939;-58
2023/03/19 21:56:59;;;;;;;;;;;;;;;9.21;51.12;94989.44;5168114;23;20235;-58
2023/03/19 21:59:01;;;;;;;;;;;;;;;9.19;51.66;94986.16;5167606;23;19970;-56
2023/03/19 22:01:03;;;;;;;;;;;;;;;9.18;51.66;94990.56;5167494;23;19920;-58
2023/03/19 22:03:05;;;;;;;;;;;;;;;9.18;51.28;94984.50;5166853;23;19974;-57
2023/03/19 22:05:26;;;;;;;;;;;;;;;9.18;51.66;94987.09;5166050;23;19965;-59
2023/03/19 22:07:27;;;;;;;;;;;;;;;9.17;52.12;94982.84;5166795;23;19966;-57
2023/03/19 22:09:29;;;;;;;;;;;;;;;9.16;51.75;94975.97;5166202;23;19923;-58
2023/03/19 22:11:31;;;;;;;;;;;;;;;9.14;51.31;94976.13;5167446;23;19919;-60
2023/03/19 22:13:33;;;;;;;;;;;;;;;9.13;51.38;94981.50;5167280;23;20342;-59
2023/03/19 22:15:36;;;;;;;;;;;;;;;9.11;52.37;94973.78;5166413;23;20258;-56
2023/03/19 22:17:39;;;;;;;;;;;;;;;9.09;52.04;94977.53;5166743;23;20001;-57
2023/03/19 22:19:41;;;;;;;;;;;;;;;9.10;52.14;94981.75;5166627;23;20335;-55
2023/03/19 22:21:42;;;;;;;;;;;;;;;9.07;52.41;94976.84;5165688;23;19959;-58
2023/03/19 22:23:45;;;;;;;;;;;;;;;9.04;53.35;94983.19;5166436;23;19923;-61
2023/03/19 22:25:47;;;;;;;;;;;;;;;8.99;52.80;94983.59;5167580;23;19920;-58
2023/03/19 22:27:49;;;;;;;;;;;;;;;8.95;52.99;94978.81;5167003;23;19954;-60
2023/03/19 22:29:50;;;;;;;;;;;;;;;8.93;52.71;94975.53;5139609;23;19940;-59
2023/03/19 22:31:52;;;;;;;;;;;;;;;8.86;54.01;94980.47;5167320;23;19919;-60
2023/03/19 22:33:54;;;;;;;;;;;;;;;8.77;53.59;94981.31;5139709;23;19920;-59
2023/03/19 22:35:55;;;;;;;;;;;;;;;8.75;53.53;94972.78;5166229;23;20331;-60
2023/03/19 22:37:57;;;;;;;;;;;;;;;8.64;53.78;94983.41;5166185;23;19919;-57
2023/03/19 22:39:58;;;;;;;;;;;;;;;8.33;54.11;94988.78;5166301;23;19962;-58
2023/03/19 22:42:00;;;;;;;;;;;;;;;8.24;54.58;94984.38;5167071;23;19927;-59
2023/03/19 22:44:02;;;;;;;;;;;;;;;8.28;55.11;94983.97;5166771;23;19931;-61
2023/03/19 22:46:05;;;;;;;;;;;;;;;8.25;54.74;94980.81;5166608;23;19927;-58
2023/03/19 22:48:08;;;;;;;;;;;;;;;8.18;54.07;94976.13;5139971;23;19927;-54
2023/03/19 22:50:20;;;;;;;;;;;;;;;8.24;54.32;94976.53;5138764;23;19923;-54
2023/03/19 22:52:21;;;;;;;;;;;;;;;8.34;54.28;94974.75;5166684;23;19919;-61
2023/03/19 22:54:23;;;;;;;;;;;;;;;8.26;54.09;94972.84;5139355;23;19920;-57
2023/03/19 22:56:25;;;;;;;;;;;;;;;8.26;53.69;94977.22;5166774;23;19923;-60
2023/03/19 22:58:26;;;;;;;;;;;;;;;8.30;53.67;94981.19;5167116;23;19919;-58
2023/03/19 23:00:28;;;;;;;;;;;;;;;8.37;54.25;94970.09;5166763;23;19982;-57
2023/03/19 23:02:29;;;;;;;;;;;;;;;8.40;53.86;94969.81;5166894;23;19924;-56
2023/03/19 23:04:31;;;;;;;;;;;;;;;8.47;54.01;94972.69;5166296;23;19923;-55
2023/03/19 23:06:33;;;;;;;;;;;;;;;8.51;53.80;94970.66;5165307;23;20389;-59
2023/03/19 23:08:35;;;;;;;;;;;;;;;8.52;53.65;94967.91;5166068;23;19985;-57
2023/03/19 23:10:38;;;;;;;;;;;;;;;8.53;53.41;94971.34;5166149;23;19919;-58
2023/03/19 23:12:40;;;;;;;;;;;;;;;8.53;53.83;94966.09;5167030;23;19947;-63
2023/03/19 23:14:41;;;;;;;;;;;;;;;8.49;53.27;94970.78;5166231;23;19974;-59
2023/03/19 23:16:44;;;;;;;;;;;;;;;8.43;53.31;94979.16;5166511;23;19969;-59
2023/03/19 23:18:46;;;;;;;;;;;;;;;8.34;53.11;94974.75;5139272;23;19940;-56
2023/03/19 23:20:48;;;;;;;;;;;;;;;8.35;53.35;94977.22;5138824;23;20279;-61
2023/03/19 23:22:49;;;;;;;;;;;;;;;8.36;52.65;94975.44;5165953;23;20719;-58
2023/03/19 23:24:51;;;;;;;;;;;;;;;8.36;52.86;94973.63;5165893;23;19946;-59
2023/03/19 23:26:53;;;;;;;;;;;;;;;8.39;52.78;94975.19;5166423;23;19919;-59
2023/03/19 23:28:55;;;;;;;;;;;;;;;8.39;52.98;94981.22;5139847;23;19920;-59
2023/03/19 23:30:57;;;;;;;;;;;;;;;8.39;53.31;94972.56;5139557;23;20030;-60
2023/03/19 23:33:00;;;;;;;;;;;;;;;8.39;53.71;94976.00;5166597;23;20342;-58
2023/03/19 23:35:04;;;;;;;;;;;;;;;8.39;53.39;94972.56;5165262;23;19947;-58
2023/03/19 23:37:06;;;;;;;;;;;;;;;8.34;53.51;94983.41;5165317;23;19959;-60
2023/03/19 23:39:08;;;;;;;;;;;;;;;8.31;52.96;94982.88;5166049;23;19930;-57
2023/03/19 23:41:16;;;;;;;;;;;;;;;8.28;53.31;94978.75;5166376;23;19970;-58
2023/03/19 23:43:18;;;;;;;;;;;;;;;8.23;53.27;94972.28;5139704;23;19935;-57
2023/03/19 23:45:23;;;;;;;;;;;;;;;8.19;53.91;94975.19;5165825;23;19938;-59
2023/03/19 23:47:24;;;;;;;;;;;;;;;8.15;54.20;94979.03;5165878;23;19919;-56
2023/03/19 23:49:27;;;;;;;;;;;;;;;8.16;54.85;94977.25;5139427;23;19974;-60
2023/03/19 23:51:29;;;;;;;;;;;;;;;8.13;54.59;94970.50;5164606;23;20419;-56
2023/03/19 23:53:32;;;;;;;;;;;;;;;8.13;54.40;94969.66;5165516;23;20296;-59
2023/03/19 23:55:33;;;;;;;;;;;;;;;8.16;54.29;94965.00;5166396;23;19930;-59
2023/03/19 23:57:36;;;;;;;;;;;;;;;8.18;53.92;94959.66;5165954;23;19981;-59
2023/03/19 23:59:38;;;;;;;;;;;;;;;8.19;53.67;94951.69;5140065;23;19958;-56
